Terminal Aerodrome Forecast
Issued by NWS

Home | Current Version | Previous Version | Text Only | Print | Product List | Glossary On
Versions: 1 2 3 4 5 6 7 8 9 10 11 12 13 14
000
FTUS42 KRAH 290520
TAFRWI
TAF
KRWI 290520Z 2906/3006 04004KT P6SM BKN060 BKN180
      TEMPO 2908/2911 2SM BR
     FM291100 03006KT P6SM VCSH BKN012 BKN035 OVC150
      TEMPO 2911/2913 5SM -SHRA BR BKN015
     FM291300 03007KT 3SM -SHRA BR BKN015 OVC050
     FM291700 02007KT P6SM VCSH BKN035 OVC100
     FM300300 01006KT 6SM BR VCSH BKN015 OVC080=

USA.gov is the U.S. government's official web portal to all federal, state and local government web resources and services.